sensor_id;sensor_type;location;lat;lon;timestamp;temperature;humidity
10278;DHT22;5184;51.376;7.148;2022-12-18T00:01:17;-3.80;99.90
10278;DHT22;5184;51.376;7.148;2022-12-18T00:03:43;-4.00;99.90
10278;DHT22;5184;51.376;7.148;2022-12-18T00:06:09;-4.10;99.90
10278;DHT22;5184;51.376;7.148;2022-12-18T00:08:36;-4.10;99.90
10278;DHT22;5184;51.376;7.148;2022-12-18T00:11:07;-4.00;1.00
10278;DHT22;5184;51.376;7.148;2022-12-18T00:13:33;-3.90;99.90
10278;DHT22;5184;51.376;7.148;2022-12-18T00:16:04;-3.70;31.80
10278;DHT22;5184;51.376;7.148;2022-12-18T00:18:30;-3.70;26.40
10278;DHT22;5184;51.376;7.148;2022-12-18T00:20:59;-3.70;1.00
10278;DHT22;5184;51.376;7.148;2022-12-18T00:23:25;-3.70;1.00
10278;DHT22;5184;51.376;7.148;2022-12-18T00:25:52;-3.80;1.00
10278;DHT22;5184;51.376;7.148;2022-12-18T00:28:20;-3.80;1.00
10278;DHT22;5184;51.376;7.148;2022-12-18T00:30:47;-3.80;1.00
10278;DHT22;5184;51.376;7.148;2022-12-18T00:33:15;-3.80;1.00
10278;DHT22;5184;51.376;7.148;2022-12-18T00:35:42;-3.50;1.00
10278;DHT22;5184;51.376;7.148;2022-12-18T00:38:09;-3.50;1.00
10278;DHT22;5184;51.376;7.148;2022-12-18T00:40:35;-3.30;99.90
10278;DHT22;5184;51.376;7.148;2022-12-18T00:43:02;-3.20;99.90
10278;DHT22;5184;51.376;7.148;2022-12-18T00:45:31;-3.00;1.00
10278;DHT22;5184;51.376;7.148;2022-12-18T00:47:55;-2.90;1.00
10278;DHT22;5184;51.376;7.148;2022-12-18T00:50:23;-2.90;1.00
10278;DHT22;5184;51.376;7.148;2022-12-18T00:52:50;-2.90;1.00
10278;DHT22;5184;51.376;7.148;2022-12-18T00:55:17;-3.00;1.00
10278;DHT22;5184;51.376;7.148;2022-12-18T00:57:44;-3.00;1.00
10278;DHT22;5184;51.376;7.148;2022-12-18T01:00:12;-3.00;1.00
10278;DHT22;5184;51.376;7.148;2022-12-18T01:02:38;-3.00;1.00
10278;DHT22;5184;51.376;7.148;2022-12-18T01:05:05;-2.90;22.20
10278;DHT22;5184;51.376;7.148;2022-12-18T01:07:33;-2.90;1.00
10278;DHT22;5184;51.376;7.148;2022-12-18T01:10:00;-3.00;81.40
10278;DHT22;5184;51.376;7.148;2022-12-18T01:12:27;-3.00;91.00
10278;DHT22;5184;51.376;7.148;2022-12-18T01:14:54;-3.00;87.70
10278;DHT22;5184;51.376;7.148;2022-12-18T01:17:21;-3.10;99.90
10278;DHT22;5184;51.376;7.148;2022-12-18T01:19:47;-3.10;99.90
10278;DHT22;5184;51.376;7.148;2022-12-18T01:22:14;-3.10;99.90
10278;DHT22;5184;51.376;7.148;2022-12-18T01:24:40;-3.10;99.90
10278;DHT22;5184;51.376;7.148;2022-12-18T01:27:07;-3.20;99.90
10278;DHT22;5184;51.376;7.148;2022-12-18T01:29:34;-3.30;99.90
10278;DHT22;5184;51.376;7.148;2022-12-18T01:32:00;-3.40;1.00
10278;DHT22;5184;51.376;7.148;2022-12-18T01:34:27;-3.40;1.00
10278;DHT22;5184;51.376;7.148;2022-12-18T01:36:53;-3.40;1.00
10278;DHT22;5184;51.376;7.148;2022-12-18T01:39:21;-3.40;1.00
10278;DHT22;5184;51.376;7.148;2022-12-18T01:41:48;-3.30;1.00
10278;DHT22;5184;51.376;7.148;2022-12-18T01:47:08;-3.20;1.00
10278;DHT22;5184;51.376;7.148;2022-12-18T01:49:35;-3.00;1.00
10278;DHT22;5184;51.376;7.148;2022-12-18T01:52:02;-2.70;99.90
10278;DHT22;5184;51.376;7.148;2022-12-18T01:54:28;-2.70;99.90
10278;DHT22;5184;51.376;7.148;2022-12-18T01:56:56;-2.60;99.90
10278;DHT22;5184;51.376;7.148;2022-12-18T01:59:22;-2.60;99.90
10278;DHT22;5184;51.376;7.148;2022-12-18T02:01:49;-2.60;99.90
10278;DHT22;5184;51.376;7.148;2022-12-18T02:04:22;-2.60;62.30
10278;DHT22;5184;51.376;7.148;2022-12-18T02:06:52;-2.60;99.90
10278;DHT22;5184;51.376;7.148;2022-12-18T02:09:20;-4.00;99.90
10278;DHT22;5184;51.376;7.148;2022-12-18T02:11:55;-2.50;49.70
10278;DHT22;5184;51.376;7.148;2022-12-18T02:14:28;-2.50;84.90
10278;DHT22;5184;51.376;7.148;2022-12-18T02:16:59;-2.50;93.70
10278;DHT22;5184;51.376;7.148;2022-12-18T02:19:30;-2.50;11.70
10278;DHT22;5184;51.376;7.148;2022-12-18T02:21:58;-2.60;99.90
10278;DHT22;5184;51.376;7.148;2022-12-18T02:27:00;-2.60;99.90
10278;DHT22;5184;51.376;7.148;2022-12-18T02:29:29;-2.50;99.90
10278;DHT22;5184;51.376;7.148;2022-12-18T02:31:57;-2.40;1.00
10278;DHT22;5184;51.376;7.148;2022-12-18T02:34:28;-2.40;1.00
10278;DHT22;5184;51.376;7.148;2022-12-18T02:36:53;-2.30;1.00
10278;DHT22;5184;51.376;7.148;2022-12-18T02:39:19;-2.30;1.00
10278;DHT22;5184;51.376;7.148;2022-12-18T02:41:47;-2.30;1.00
10278;DHT22;5184;51.376;7.148;2022-12-18T02:44:14;-2.30;1.00
10278;DHT22;5184;51.376;7.148;2022-12-18T02:46:43;-2.20;1.00
10278;DHT22;5184;51.376;7.148;2022-12-18T02:52:01;-2.20;1.00
10278;DHT22;5184;51.376;7.148;2022-12-18T02:54:57;-2.20;1.00
10278;DHT22;5184;51.376;7.148;2022-12-18T02:59:56;-2.30;1.00
10278;DHT22;5184;51.376;7.148;2022-12-18T03:05:23;-2.30;1.00
10278;DHT22;5184;51.376;7.148;2022-12-18T03:07:51;-2.30;1.00
10278;DHT22;5184;51.376;7.148;2022-12-18T03:10:16;-2.30;1.00
10278;DHT22;5184;51.376;7.148;2022-12-18T03:12:45;-2.20;1.00
10278;DHT22;5184;51.376;7.148;2022-12-18T03:15:18;-2.10;1.00
10278;DHT22;5184;51.376;7.148;2022-12-18T03:17:46;-2.10;1.00
10278;DHT22;5184;51.376;7.148;2022-12-18T03:20:14;-2.10;1.00
10278;DHT22;5184;51.376;7.148;2022-12-18T03:22:41;-2.10;1.00
10278;DHT22;5184;51.376;7.148;2022-12-18T03:25:08;-2.10;1.00
10278;DHT22;5184;51.376;7.148;2022-12-18T03:27:34;-2.10;1.00
10278;DHT22;5184;51.376;7.148;2022-12-18T03:30:05;-2.00;1.00
10278;DHT22;5184;51.376;7.148;2022-12-18T03:32:32;-2.00;1.00
10278;DHT22;5184;51.376;7.148;2022-12-18T03:34:59;-2.00;99.90
10278;DHT22;5184;51.376;7.148;2022-12-18T03:37:26;-2.00;1.00
10278;DHT22;5184;51.376;7.148;2022-12-18T03:39:53;-2.00;1.00
10278;DHT22;5184;51.376;7.148;2022-12-18T03:42:27;-2.00;1.00
10278;DHT22;5184;51.376;7.148;2022-12-18T03:44:57;-2.00;1.00
10278;DHT22;5184;51.376;7.148;2022-12-18T03:47:27;-2.00;1.00
10278;DHT22;5184;51.376;7.148;2022-12-18T03:49:56;-2.10;1.00
10278;DHT22;5184;51.376;7.148;2022-12-18T03:52:28;-2.10;1.00
10278;DHT22;5184;51.376;7.148;2022-12-18T03:54:53;-2.10;1.00
10278;DHT22;5184;51.376;7.148;2022-12-18T03:57:20;-2.10;1.00
10278;DHT22;5184;51.376;7.148;2022-12-18T03:59:47;-2.00;1.00
10278;DHT22;5184;51.376;7.148;2022-12-18T04:02:14;-2.10;1.00
10278;DHT22;5184;51.376;7.148;2022-12-18T04:04:40;-2.10;1.00
10278;DHT22;5184;51.376;7.148;2022-12-18T04:07:07;-2.10;1.00
10278;DHT22;5184;51.376;7.148;2022-12-18T04:09:34;-2.10;1.00
10278;DHT22;5184;51.376;7.148;2022-12-18T04:12:00;-2.20;1.00
10278;DHT22;5184;51.376;7.148;2022-12-18T04:14:27;-2.20;1.00
10278;DHT22;5184;51.376;7.148;2022-12-18T04:16:53;-2.20;1.00
10278;DHT22;5184;51.376;7.148;2022-12-18T04:19:20;-2.30;1.00
10278;DHT22;5184;51.376;7.148;2022-12-18T04:21:47;-2.30;1.00
10278;DHT22;5184;51.376;7.148;2022-12-18T04:24:15;-2.30;1.00
10278;DHT22;5184;51.376;7.148;2022-12-18T04:26:42;-2.20;1.00
10278;DHT22;5184;51.376;7.148;2022-12-18T04:29:09;-2.20;1.00
10278;DHT22;5184;51.376;7.148;2022-12-18T04:31:35;-2.20;1.00
10278;DHT22;5184;51.376;7.148;2022-12-18T04:34:02;-2.20;1.00
10278;DHT22;5184;51.376;7.148;2022-12-18T04:36:29;-2.20;1.00
10278;DHT22;5184;51.376;7.148;2022-12-18T04:38:56;-2.10;1.00
10278;DHT22;5184;51.376;7.148;2022-12-18T04:41:23;-2.10;1.00
10278;DHT22;5184;51.376;7.148;2022-12-18T04:43:49;-2.20;1.00
10278;DHT22;5184;51.376;7.148;2022-12-18T04:46:16;-2.20;1.00
10278;DHT22;5184;51.376;7.148;2022-12-18T04:48:44;-2.20;1.00
10278;DHT22;5184;51.376;7.148;2022-12-18T04:51:09;-2.30;1.00
10278;DHT22;5184;51.376;7.148;2022-12-18T04:53:36;-2.30;1.00
10278;DHT22;5184;51.376;7.148;2022-12-18T04:56:04;-2.40;1.00
10278;DHT22;5184;51.376;7.148;2022-12-18T04:58:30;-2.40;1.00
10278;DHT22;5184;51.376;7.148;2022-12-18T05:00:56;-2.50;1.00
10278;DHT22;5184;51.376;7.148;2022-12-18T05:03:23;-2.50;1.00
10278;DHT22;5184;51.376;7.148;2022-12-18T05:05:50;-2.40;1.00
10278;DHT22;5184;51.376;7.148;2022-12-18T05:08:18;-2.40;1.00
10278;DHT22;5184;51.376;7.148;2022-12-18T05:10:45;-2.30;1.00
10278;DHT22;5184;51.376;7.148;2022-12-18T05:13:11;-2.30;1.00
10278;DHT22;5184;51.376;7.148;2022-12-18T05:15:38;-2.20;1.00
10278;DHT22;5184;51.376;7.148;2022-12-18T05:18:05;-2.10;99.90
10278;DHT22;5184;51.376;7.148;2022-12-18T05:20:31;-2.10;99.90
10278;DHT22;5184;51.376;7.148;2022-12-18T05:22:58;-2.20;99.90
10278;DHT22;5184;51.376;7.148;2022-12-18T05:25:25;-1.10;99.90
10278;DHT22;5184;51.376;7.148;2022-12-18T05:27:52;-2.30;99.90
10278;DHT22;5184;51.376;7.148;2022-12-18T05:30:18;-2.20;99.90
10278;DHT22;5184;51.376;7.148;2022-12-18T05:32:45;-2.20;99.90
10278;DHT22;5184;51.376;7.148;2022-12-18T05:35:12;-2.10;99.90
10278;DHT22;5184;51.376;7.148;2022-12-18T05:37:38;-2.10;99.90
10278;DHT22;5184;51.376;7.148;2022-12-18T05:40:06;-2.10;99.90
10278;DHT22;5184;51.376;7.148;2022-12-18T05:42:33;-2.10;99.90
10278;DHT22;5184;51.376;7.148;2022-12-18T05:45:00;-2.20;99.90
10278;DHT22;5184;51.376;7.148;2022-12-18T05:47:27;-2.30;99.90
10278;DHT22;5184;51.376;7.148;2022-12-18T05:49:54;-2.30;99.90
10278;DHT22;5184;51.376;7.148;2022-12-18T05:52:20;-2.30;99.90
10278;DHT22;5184;51.376;7.148;2022-12-18T05:54:47;-2.20;99.90
10278;DHT22;5184;51.376;7.148;2022-12-18T05:57:13;-2.20;99.90
10278;DHT22;5184;51.376;7.148;2022-12-18T05:59:40;-2.20;36.60
10278;DHT22;5184;51.376;7.148;2022-12-18T06:02:07;-2.20;4.20
10278;DHT22;5184;51.376;7.148;2022-12-18T06:04:34;-2.20;1.00
10278;DHT22;5184;51.376;7.148;2022-12-18T06:07:01;-2.10;1.00
10278;DHT22;5184;51.376;7.148;2022-12-18T06:09:29;-3.00;1.00
10278;DHT22;5184;51.376;7.148;2022-12-18T06:11:57;-2.20;1.00
10278;DHT22;5184;51.376;7.148;2022-12-18T06:14:24;-2.20;1.00
10278;DHT22;5184;51.376;7.148;2022-12-18T06:16:51;-2.30;1.00
10278;DHT22;5184;51.376;7.148;2022-12-18T06:19:18;-2.30;1.00
10278;DHT22;5184;51.376;7.148;2022-12-18T06:21:45;-2.30;1.00
10278;DHT22;5184;51.376;7.148;2022-12-18T06:24:11;-3.20;1.00
10278;DHT22;5184;51.376;7.148;2022-12-18T06:26:39;-2.30;1.00
10278;DHT22;5184;51.376;7.148;2022-12-18T06:29:06;-2.40;1.00
10278;DHT22;5184;51.376;7.148;2022-12-18T06:31:33;-2.50;1.00
10278;DHT22;5184;51.376;7.148;2022-12-18T06:34:02;-2.60;1.00
10278;DHT22;5184;51.376;7.148;2022-12-18T06:36:29;-2.50;1.00
10278;DHT22;5184;51.376;7.148;2022-12-18T06:38:56;-2.50;1.00
10278;DHT22;5184;51.376;7.148;2022-12-18T06:41:23;-2.40;1.00
10278;DHT22;5184;51.376;7.148;2022-12-18T06:43:51;-2.40;1.00
10278;DHT22;5184;51.376;7.148;2022-12-18T06:46:18;-2.50;1.00
10278;DHT22;5184;51.376;7.148;2022-12-18T06:48:48;-2.50;1.00
10278;DHT22;5184;51.376;7.148;2022-12-18T06:51:22;-2.40;1.00
10278;DHT22;5184;51.376;7.148;2022-12-18T06:53:48;-2.30;1.00
10278;DHT22;5184;51.376;7.148;2022-12-18T06:56:15;-2.70;1.00
10278;DHT22;5184;51.376;7.148;2022-12-18T06:58:42;-2.40;1.00
10278;DHT22;5184;51.376;7.148;2022-12-18T07:01:10;-2.40;1.00
10278;DHT22;5184;51.376;7.148;2022-12-18T07:03:38;-2.40;1.00
10278;DHT22;5184;51.376;7.148;2022-12-18T07:06:05;-2.40;1.00
10278;DHT22;5184;51.376;7.148;2022-12-18T07:08:32;-2.40;1.00
10278;DHT22;5184;51.376;7.148;2022-12-18T07:11:02;-2.40;1.00
10278;DHT22;5184;51.376;7.148;2022-12-18T07:13:26;-2.50;1.00
10278;DHT22;5184;51.376;7.148;2022-12-18T07:15:52;-2.50;1.00
10278;DHT22;5184;51.376;7.148;2022-12-18T07:18:19;-2.50;1.00
10278;DHT22;5184;51.376;7.148;2022-12-18T07:20:45;-4.30;1.00
10278;DHT22;5184;51.376;7.148;2022-12-18T07:23:13;-2.80;99.90
10278;DHT22;5184;51.376;7.148;2022-12-18T07:25:40;-2.70;99.90
10278;DHT22;5184;51.376;7.148;2022-12-18T07:28:08;-2.60;1.00
10278;DHT22;5184;51.376;7.148;2022-12-18T07:30:36;-1.60;1.00
10278;DHT22;5184;51.376;7.148;2022-12-18T07:33:01;-2.50;1.00
10278;DHT22;5184;51.376;7.148;2022-12-18T07:35:28;-2.40;1.00
10278;DHT22;5184;51.376;7.148;2022-12-18T07:37:55;-2.90;1.00
10278;DHT22;5184;51.376;7.148;2022-12-18T07:40:21;-2.20;99.90
10278;DHT22;5184;51.376;7.148;2022-12-18T07:42:48;-1.90;99.90
10278;DHT22;5184;51.376;7.148;2022-12-18T07:45:15;-1.80;99.90
10278;DHT22;5184;51.376;7.148;2022-12-18T07:47:43;-1.60;99.90
10278;DHT22;5184;51.376;7.148;2022-12-18T07:50:10;-1.50;99.90
10278;DHT22;5184;51.376;7.148;2022-12-18T07:52:37;-1.50;99.90
10278;DHT22;5184;51.376;7.148;2022-12-18T07:55:04;-1.50;99.90
10278;DHT22;5184;51.376;7.148;2022-12-18T07:57:30;-1.30;99.90
10278;DHT22;5184;51.376;7.148;2022-12-18T07:59:58;-1.10;66.20
10278;DHT22;5184;51.376;7.148;2022-12-18T08:02:25;-1.00;33.10
10278;DHT22;5184;51.376;7.148;2022-12-18T08:04:52;-1.00;32.70
10278;DHT22;5184;51.376;7.148;2022-12-18T08:07:18;-1.00;18.30
10278;DHT22;5184;51.376;7.148;2022-12-18T08:09:45;-0.90;3.90
10278;DHT22;5184;51.376;7.148;2022-12-18T08:12:12;-0.70;1.00
10278;DHT22;5184;51.376;7.148;2022-12-18T08:14:40;-0.70;1.00
10278;DHT22;5184;51.376;7.148;2022-12-18T08:17:07;-0.70;1.00
10278;DHT22;5184;51.376;7.148;2022-12-18T08:19:34;-0.70;1.00
10278;DHT22;5184;51.376;7.148;2022-12-18T08:22:00;-0.60;60.40
10278;DHT22;5184;51.376;7.148;2022-12-18T08:24:27;-0.50;1.00
10278;DHT22;5184;51.376;7.148;2022-12-18T08:26:53;-0.50;1.00
10278;DHT22;5184;51.376;7.148;2022-12-18T08:29:21;-0.40;1.00
10278;DHT22;5184;51.376;7.148;2022-12-18T08:31:49;-0.40;1.00
10278;DHT22;5184;51.376;7.148;2022-12-18T08:34:16;-0.40;1.00
10278;DHT22;5184;51.376;7.148;2022-12-18T08:36:43;-0.30;1.00
10278;DHT22;5184;51.376;7.148;2022-12-18T08:39:10;-0.30;1.00
10278;DHT22;5184;51.376;7.148;2022-12-18T08:41:38;-0.20;1.00
10278;DHT22;5184;51.376;7.148;2022-12-18T08:44:06;-0.10;1.00
10278;DHT22;5184;51.376;7.148;2022-12-18T08:46:38;-0.10;1.00
10278;DHT22;5184;51.376;7.148;2022-12-18T08:49:05;-0.10;1.00
10278;DHT22;5184;51.376;7.148;2022-12-18T08:51:32;-0.10;1.00
10278;DHT22;5184;51.376;7.148;2022-12-18T08:53:58;-0.10;1.00
10278;DHT22;5184;51.376;7.148;2022-12-18T08:56:24;0.00;1.00
10278;DHT22;5184;51.376;7.148;2022-12-18T08:58:52;0.10;1.00
10278;DHT22;5184;51.376;7.148;2022-12-18T09:01:19;0.20;1.00
10278;DHT22;5184;51.376;7.148;2022-12-18T09:03:47;0.30;1.00
10278;DHT22;5184;51.376;7.148;2022-12-18T09:06:15;0.40;1.00
10278;DHT22;5184;51.376;7.148;2022-12-18T09:08:42;0.40;1.00
10278;DHT22;5184;51.376;7.148;2022-12-18T09:11:13;0.50;1.00
10278;DHT22;5184;51.376;7.148;2022-12-18T09:13:38;0.50;1.00
10278;DHT22;5184;51.376;7.148;2022-12-18T09:16:05;0.60;1.00
10278;DHT22;5184;51.376;7.148;2022-12-18T09:18:33;0.70;1.00
10278;DHT22;5184;51.376;7.148;2022-12-18T09:21:06;0.70;1.00
10278;DHT22;5184;51.376;7.148;2022-12-18T09:23:27;0.70;1.00
10278;DHT22;5184;51.376;7.148;2022-12-18T09:25:58;0.70;1.00
10278;DHT22;5184;51.376;7.148;2022-12-18T09:28:20;0.80;1.00
10278;DHT22;5184;51.376;7.148;2022-12-18T09:30:47;0.80;99.90
10278;DHT22;5184;51.376;7.148;2022-12-18T09:33:13;0.80;99.90
10278;DHT22;5184;51.376;7.148;2022-12-18T09:35:40;0.90;99.90
10278;DHT22;5184;51.376;7.148;2022-12-18T09:38:07;0.90;99.90
10278;DHT22;5184;51.376;7.148;2022-12-18T09:40:39;1.00;99.90
10278;DHT22;5184;51.376;7.148;2022-12-18T09:43:04;1.10;99.90
10278;DHT22;5184;51.376;7.148;2022-12-18T09:45:39;1.10;99.90
10278;DHT22;5184;51.376;7.148;2022-12-18T09:48:09;1.10;99.90
10278;DHT22;5184;51.376;7.148;2022-12-18T09:50:34;1.20;99.90
10278;DHT22;5184;51.376;7.148;2022-12-18T09:53:02;1.20;99.90
10278;DHT22;5184;51.376;7.148;2022-12-18T09:55:29;1.20;99.90
10278;DHT22;5184;51.376;7.148;2022-12-18T09:57:56;1.30;99.90
10278;DHT22;5184;51.376;7.148;2022-12-18T10:00:23;1.40;99.90
10278;DHT22;5184;51.376;7.148;2022-12-18T10:02:48;1.40;99.90
10278;DHT22;5184;51.376;7.148;2022-12-18T10:05:17;1.50;99.90
10278;DHT22;5184;51.376;7.148;2022-12-18T10:07:49;1.40;99.90
10278;DHT22;5184;51.376;7.148;2022-12-18T10:10:37;1.50;99.90
10278;DHT22;5184;51.376;7.148;2022-12-18T10:13:09;1.50;99.90
10278;DHT22;5184;51.376;7.148;2022-12-18T10:15:36;1.60;99.90
10278;DHT22;5184;51.376;7.148;2022-12-18T10:18:13;1.60;99.90
10278;DHT22;5184;51.376;7.148;2022-12-18T10:20:38;1.60;99.90
10278;DHT22;5184;51.376;7.148;2022-12-18T10:23:08;1.70;99.90
10278;DHT22;5184;51.376;7.148;2022-12-18T10:25:34;1.70;99.90
10278;DHT22;5184;51.376;7.148;2022-12-18T10:27:58;1.70;99.90
10278;DHT22;5184;51.376;7.148;2022-12-18T10:30:25;1.80;99.90
10278;DHT22;5184;51.376;7.148;2022-12-18T10:32:51;1.90;99.90
10278;DHT22;5184;51.376;7.148;2022-12-18T10:35:20;1.90;99.90
10278;DHT22;5184;51.376;7.148;2022-12-18T10:40:22;2.00;99.90
10278;DHT22;5184;51.376;7.148;2022-12-18T10:45:23;2.10;99.90
10278;DHT22;5184;51.376;7.148;2022-12-18T10:47:50;2.10;99.90
10278;DHT22;5184;51.376;7.148;2022-12-18T10:50:25;2.20;99.90
10278;DHT22;5184;51.376;7.148;2022-12-18T10:52:52;2.20;99.90
10278;DHT22;5184;51.376;7.148;2022-12-18T10:55:13;2.30;99.90
10278;DHT22;5184;51.376;7.148;2022-12-18T10:57:40;2.40;99.90
10278;DHT22;5184;51.376;7.148;2022-12-18T11:00:26;2.40;99.90
10278;DHT22;5184;51.376;7.148;2022-12-18T11:02:52;2.40;99.90
10278;DHT22;5184;51.376;7.148;2022-12-18T11:05:29;2.40;99.90
10278;DHT22;5184;51.376;7.148;2022-12-18T11:07:55;2.40;99.90
10278;DHT22;5184;51.376;7.148;2022-12-18T11:10:36;1.70;99.90
10278;DHT22;5184;51.376;7.148;2022-12-18T11:13:11;2.50;99.90
10278;DHT22;5184;51.376;7.148;2022-12-18T11:15:37;2.60;99.90
10278;DHT22;5184;51.376;7.148;2022-12-18T11:18:04;2.60;99.90
10278;DHT22;5184;51.376;7.148;2022-12-18T11:20:31;2.60;99.90
10278;DHT22;5184;51.376;7.148;2022-12-18T11:23:11;2.60;99.90
10278;DHT22;5184;51.376;7.148;2022-12-18T11:25:32;2.60;99.90
10278;DHT22;5184;51.376;7.148;2022-12-18T11:28:00;2.70;99.90
10278;DHT22;5184;51.376;7.148;2022-12-18T11:30:28;2.80;99.90
10278;DHT22;5184;51.376;7.148;2022-12-18T11:33:05;2.80;99.90
10278;DHT22;5184;51.376;7.148;2022-12-18T11:35:40;2.80;99.90
10278;DHT22;5184;51.376;7.148;2022-12-18T11:38:10;2.90;99.90
10278;DHT22;5184;51.376;7.148;2022-12-18T11:40:35;2.90;99.90
10278;DHT22;5184;51.376;7.148;2022-12-18T11:43:07;2.90;99.90
10278;DHT22;5184;51.376;7.148;2022-12-18T11:45:34;3.00;99.90
10278;DHT22;5184;51.376;7.148;2022-12-18T11:48:04;3.00;99.90
10278;DHT22;5184;51.376;7.148;2022-12-18T11:50:33;3.00;99.90
10278;DHT22;5184;51.376;7.148;2022-12-18T11:52:58;3.10;99.90
10278;DHT22;5184;51.376;7.148;2022-12-18T11:55:28;3.10;99.90
10278;DHT22;5184;51.376;7.148;2022-12-18T11:58:13;3.10;99.90
10278;DHT22;5184;51.376;7.148;2022-12-18T12:00:39;3.10;99.90
10278;DHT22;5184;51.376;7.148;2022-12-18T12:06:06;3.10;99.90
10278;DHT22;5184;51.376;7.148;2022-12-18T12:08:37;3.10;99.90
10278;DHT22;5184;51.376;7.148;2022-12-18T12:11:12;3.10;99.90
10278;DHT22;5184;51.376;7.148;2022-12-18T12:13:44;3.10;99.90
10278;DHT22;5184;51.376;7.148;2022-12-18T12:19:02;3.10;99.90
10278;DHT22;5184;51.376;7.148;2022-12-18T12:21:37;3.00;99.90
10278;DHT22;5184;51.376;7.148;2022-12-18T12:24:12;3.00;99.90
10278;DHT22;5184;51.376;7.148;2022-12-18T12:26:45;3.10;99.90
10278;DHT22;5184;51.376;7.148;2022-12-18T12:32:07;3.00;99.90
10278;DHT22;5184;51.376;7.148;2022-12-18T12:34:39;3.00;99.90
10278;DHT22;5184;51.376;7.148;2022-12-18T12:37:18;3.00;99.90
10278;DHT22;5184;51.376;7.148;2022-12-18T12:39:42;3.00;99.90
10278;DHT22;5184;51.376;7.148;2022-12-18T12:42:12;3.00;99.90
10278;DHT22;5184;51.376;7.148;2022-12-18T12:44:47;3.00;99.90
10278;DHT22;5184;51.376;7.148;2022-12-18T12:47:28;3.00;99.90
10278;DHT22;5184;51.376;7.148;2022-12-18T12:49:53;3.00;99.90
10278;DHT22;5184;51.376;7.148;2022-12-18T12:52:28;3.00;99.90
10278;DHT22;5184;51.376;7.148;2022-12-18T12:54:52;2.90;99.90
10278;DHT22;5184;51.376;7.148;2022-12-18T12:57:24;2.90;99.90
10278;DHT22;5184;51.376;7.148;2022-12-18T13:00:07;2.90;99.90
10278;DHT22;5184;51.376;7.148;2022-12-18T13:02:54;2.90;99.90
10278;DHT22;5184;51.376;7.148;2022-12-18T13:05:28;2.90;99.90
10278;DHT22;5184;51.376;7.148;2022-12-18T13:07:54;2.90;99.90
10278;DHT22;5184;51.376;7.148;2022-12-18T13:10:24;2.90;99.90
10278;DHT22;5184;51.376;7.148;2022-12-18T13:12:56;2.90;99.90
10278;DHT22;5184;51.376;7.148;2022-12-18T13:15:39;2.80;99.90
10278;DHT22;5184;51.376;7.148;2022-12-18T13:18:23;2.60;99.90
10278;DHT22;5184;51.376;7.148;2022-12-18T13:21:14;2.60;99.90
10278;DHT22;5184;51.376;7.148;2022-12-18T13:23:38;2.60;99.90
10278;DHT22;5184;51.376;7.148;2022-12-18T13:26:29;2.60;99.90
10278;DHT22;5184;51.376;7.148;2022-12-18T13:28:56;2.50;99.90
10278;DHT22;5184;51.376;7.148;2022-12-18T13:34:24;2.50;99.90
10278;DHT22;5184;51.376;7.148;2022-12-18T13:36:49;2.50;99.90
10278;DHT22;5184;51.376;7.148;2022-12-18T13:39:31;2.50;99.90
10278;DHT22;5184;51.376;7.148;2022-12-18T13:47:44;2.40;99.90
10278;DHT22;5184;51.376;7.148;2022-12-18T13:50:20;2.40;99.90
10278;DHT22;5184;51.376;7.148;2022-12-18T13:52:46;2.30;99.90
10278;DHT22;5184;51.376;7.148;2022-12-18T13:55:15;2.20;99.90
10278;DHT22;5184;51.376;7.148;2022-12-18T13:57:41;2.20;99.90
10278;DHT22;5184;51.376;7.148;2022-12-18T14:00:28;2.30;99.90
10278;DHT22;5184;51.376;7.148;2022-12-18T14:02:55;2.30;99.90
10278;DHT22;5184;51.376;7.148;2022-12-18T14:05:24;2.20;99.90
10278;DHT22;5184;51.376;7.148;2022-12-18T14:07:50;2.10;99.90
10278;DHT22;5184;51.376;7.148;2022-12-18T14:10:17;2.10;99.90
10278;DHT22;5184;51.376;7.148;2022-12-18T14:12:45;2.00;99.90
10278;DHT22;5184;51.376;7.148;2022-12-18T14:15:33;1.90;99.90
10278;DHT22;5184;51.376;7.148;2022-12-18T14:18:01;1.70;99.90
10278;DHT22;5184;51.376;7.148;2022-12-18T14:20:28;1.70;99.90
10278;DHT22;5184;51.376;7.148;2022-12-18T14:22:54;1.60;99.90
10278;DHT22;5184;51.376;7.148;2022-12-18T14:25:21;1.60;99.90
10278;DHT22;5184;51.376;7.148;2022-12-18T14:27:48;1.50;99.90
10278;DHT22;5184;51.376;7.148;2022-12-18T14:30:27;1.50;99.90
10278;DHT22;5184;51.376;7.148;2022-12-18T14:33:00;1.50;99.90
10278;DHT22;5184;51.376;7.148;2022-12-18T14:35:26;1.50;99.90
10278;DHT22;5184;51.376;7.148;2022-12-18T14:37:53;1.40;99.90
10278;DHT22;5184;51.376;7.148;2022-12-18T14:40:21;1.40;99.90
10278;DHT22;5184;51.376;7.148;2022-12-18T14:42:47;1.40;99.90
10278;DHT22;5184;51.376;7.148;2022-12-18T14:45:33;1.40;99.90
10278;DHT22;5184;51.376;7.148;2022-12-18T14:47:59;1.30;99.90
10278;DHT22;5184;51.376;7.148;2022-12-18T14:50:27;1.30;99.90
10278;DHT22;5184;51.376;7.148;2022-12-18T14:52:54;1.30;99.90
10278;DHT22;5184;51.376;7.148;2022-12-18T14:55:21;1.30;99.90
10278;DHT22;5184;51.376;7.148;2022-12-18T14:57:50;1.30;99.90
10278;DHT22;5184;51.376;7.148;2022-12-18T15:00:17;1.30;99.90
10278;DHT22;5184;51.376;7.148;2022-12-18T15:02:44;1.20;99.90
10278;DHT22;5184;51.376;7.148;2022-12-18T15:05:26;1.20;99.90
10278;DHT22;5184;51.376;7.148;2022-12-18T15:07:52;1.10;99.90
10278;DHT22;5184;51.376;7.148;2022-12-18T15:10:20;1.20;99.90
10278;DHT22;5184;51.376;7.148;2022-12-18T15:12:47;1.10;99.90
10278;DHT22;5184;51.376;7.148;2022-12-18T15:17:57;1.10;99.90
10278;DHT22;5184;51.376;7.148;2022-12-18T15:20:23;1.00;99.90
10278;DHT22;5184;51.376;7.148;2022-12-18T15:22:50;1.10;99.90
10278;DHT22;5184;51.376;7.148;2022-12-18T15:25:28;1.00;99.90
10278;DHT22;5184;51.376;7.148;2022-12-18T15:27:53;1.00;99.90
10278;DHT22;5184;51.376;7.148;2022-12-18T15:30:22;1.00;99.90
10278;DHT22;5184;51.376;7.148;2022-12-18T15:32:47;1.00;99.90
10278;DHT22;5184;51.376;7.148;2022-12-18T15:35:18;1.00;99.90
10278;DHT22;5184;51.376;7.148;2022-12-18T15:37:43;0.90;99.90
10278;DHT22;5184;51.376;7.148;2022-12-18T15:40:12;0.90;99.90
10278;DHT22;5184;51.376;7.148;2022-12-18T15:42:38;0.90;99.90
10278;DHT22;5184;51.376;7.148;2022-12-18T15:45:11;0.90;99.90
10278;DHT22;5184;51.376;7.148;2022-12-18T15:47:38;0.90;99.90
10278;DHT22;5184;51.376;7.148;2022-12-18T15:50:05;0.90;99.90
10278;DHT22;5184;51.376;7.148;2022-12-18T15:52:32;0.90;99.90
10278;DHT22;5184;51.376;7.148;2022-12-18T15:54:58;0.90;1.00
10278;DHT22;5184;51.376;7.148;2022-12-18T15:57:30;0.90;1.00
10278;DHT22;5184;51.376;7.148;2022-12-18T15:59:58;0.90;1.00
10278;DHT22;5184;51.376;7.148;2022-12-18T16:02:24;0.90;1.00
10278;DHT22;5184;51.376;7.148;2022-12-18T16:04:51;0.90;1.00
10278;DHT22;5184;51.376;7.148;2022-12-18T16:07:17;0.80;1.00
10278;DHT22;5184;51.376;7.148;2022-12-18T16:09:47;0.80;1.00
10278;DHT22;5184;51.376;7.148;2022-12-18T16:12:16;0.80;1.00
10278;DHT22;5184;51.376;7.148;2022-12-18T16:14:42;2.00;1.00
10278;DHT22;5184;51.376;7.148;2022-12-18T16:17:09;0.90;1.00
10278;DHT22;5184;51.376;7.148;2022-12-18T16:19:36;0.80;1.00
10278;DHT22;5184;51.376;7.148;2022-12-18T16:22:03;0.90;1.00
10278;DHT22;5184;51.376;7.148;2022-12-18T16:24:31;0.90;1.00
10278;DHT22;5184;51.376;7.148;2022-12-18T16:26:57;0.80;1.00
10278;DHT22;5184;51.376;7.148;2022-12-18T16:29:24;0.80;1.00
10278;DHT22;5184;51.376;7.148;2022-12-18T16:31:51;0.80;1.00
10278;DHT22;5184;51.376;7.148;2022-12-18T16:34:21;0.80;1.00
10278;DHT22;5184;51.376;7.148;2022-12-18T16:36:48;0.80;1.00
10278;DHT22;5184;51.376;7.148;2022-12-18T16:39:14;0.80;1.00
10278;DHT22;5184;51.376;7.148;2022-12-18T16:41:41;0.80;1.00
10278;DHT22;5184;51.376;7.148;2022-12-18T16:44:08;0.80;1.00
10278;DHT22;5184;51.376;7.148;2022-12-18T16:46:36;0.80;1.00